Timeline UpdatesTrip UpdatesNews PostsPvt PostsTravel TipsAdmin PostsConv PostsFollowed PostsChat RequestsBlog PostsPNR Posts

Disclaimer
Search
 
 
Thu Jul 31, 2014 04:50:22 ISTHomeTrainsΣChainsAtlasPNRForumGalleryNewsFAQTripsMembersLoginFeedback
No Recent News for this Train
Other Trains in the News **new
Latest...
⇐ Return Journey: Train# 14235

14236/Bareilly - Varanasi Express

Feb 11 2014 (3:10PM)
Change Departure Station:
Change Arrival Station:
Post a Train Travel TipPost a Train Travel Tip **new
Post a Comment/Question/Picture/VideoPost a Comment/Question/Picture/Video
Pantry/Catering
✕ NO Pantry Car
✕ NO Catering
RSA - Rake Sharing
Rake/Coach Composition
LOCO-SLR-GS1-GS2-B1-S5-S4-S3-S2-S1-GS3-GS4-SLR. Blog# 943920.
Loco
News    PNR    Forum    Time-Table    Availability    Fare Chart    Map    Arr/Dep History    Trips    Gallery    ΣChains    X/O    Timeline    
Travel Time: 14h 30m    38 halts    Distance: 523 km    Avg Speed: 36 km/hr
Type: Mail/Express
Zone: NR/Northern
Departs @ 16:20 (Avg 55m late)
Platform# ???
SMTWTFS
Bilpur/BLPU 
Arrives @ 06:50 +1 night (Avg 56m late)
Platform# 8
SMTWTFS
Varanasi Junction/BSB 

38 halts. 77 intermediate Stations between Bilpur and Varanasi Junction

Show ALL intermediate Stations  Show Old Time-Table

#CodeStation NameX/OArrivesAvgDepartsAvgHaltPFDay#KmSpeedElevZoneAddress
1BEBareilly Junction (4)  -15:35+1731-35.457174mNRBareilly, Uttar Pradesh
2RYSRasuriya  15:46+3315:48+362m--1-25.063174mNRNH 24, Uttar Pradesh
3PMRPitambarpur  15:57+3815:59+402m--1-15.657171mNRPitambarpur, Uttar Pradesh
4TSATisua  16:08+4116:10+492m--1-7.053165mNRNational Highway 24, Uttar Pradesh
5BLPU»Bilpur»  16:18+5116:20+552m--10.054161mNRFatehganj, Uttar Pradesh
6MKMiranpur Katra  16:28+5616:30+562m--17.249162mNRShahjahanpur, Uttar Pradesh
7TLHTilhar  16:42+5216:44+572m--116.965163mNRTilhar, Uttar Pradesh
8BTRABanthra  16:53+1:0016:55+1:012m--126.742154mNRNH 24, Uttar Pradesh
9SPNShahjahanpur Junction (3)X  17:07+5617:12+1:005m1135.055156mNRShahjahanpur, Uttar Pradesh
10ROZARoza Junction (4)  17:20+1:0617:22+1:072m--142.447156mNRShahjahanpur, Uttar Pradesh
11KHKahiliya  17:33+1:1217:35+1:142m--150.964152mNRSH 25, Uttar Pradesh
12AIGAlgawan  17:43+1:1417:45+1:152m--159.554152mNRAlgawan, Uttar Pradesh
13AJIAnjhi ShahabadX  17:52+1:1617:54+1:192m--165.864148mNRAnjhi Shahabad, Uttar Pradesh
14TDPTodarpurO  18:02+1:2018:04+1:192m--174.255147mNRSH 25, Uttar Pradesh
15BEGBehtagokulXO  18:11+1:2018:13+1:262m--180.759152mNRBehtagokul, Uttar Pradesh
16KUFKaurha  18:22+1:2618:24+1:302m--189.656148mNRSH 25, Uttar Pradesh
17HRIHardoi (5)X  18:33+1:2118:35+1:292m3197.945146mNRHardoi, Uttar Pradesh
18KARKarnaX  18:48+1:3718:50+1:412m--1107.856143mNRHardoi, Uttar Pradesh
19MSTMasit  18:58+1:4319:00+1:432m--1115.352141mNRSH 25, Uttar Pradesh
20BGHBaghauliX  19:08+1:4319:10+1:582m--1122.248141mNRsharda nehar, Uttar Pradesh
21BLMBalamu Junction (4)  19:21+1:5719:23+1:572m--1131.052139mNRBalamau, Uttar Pradesh
22DLQDalelnagarX  19:33+1:5619:35+1:552m--1139.655136mNRSH 25, Uttar Pradesh
23UTAUmar TaliX  19:42+1:5619:44+2:042m--1146.045135mNRHardoi, Uttar Pradesh
24SANSandila (3)  19:51+2:0419:53+2:072m--1151.366132mNRSandila, Uttar Pradesh
25RBDRahimabadX  20:03+2:0920:05+2:132m--1162.357132mNRSH 25, Uttar Pradesh
26DILDilawarnagarX  20:13+2:1420:15+2:172m--1169.968133mNRSH 25, Uttar Pradesh
27MLDMalihabad  20:20+2:2020:24+2:224m--1175.664130mNRMalihabad, Uttar Pradesh
28KKJKakori (3)XO  20:33+2:1220:35+2:172m--1185.26129mNRSH 25, Uttar Pradesh
29LKOLucknow Charbagh (9)X  23:00+5323:15+1:0015m51199.843123mNR226004, Uttar Pradesh
30BBKBarabanki Junction (4)  23:55+1:1523:57+1:162m31228.374122mNRPin-225001, Uttar Pradesh
31DYDDaryabad  00:28+1:4400:30+1:442m--2266.477116mNRFaizabad Rd, Uttar Pradesh
32RDLRudauli (2)  00:48+1:4900:50+1:492m--2289.539112mNRRudauli, Uttar Pradesh
33FDFaizabad Junction (5)  01:48+1:2701:53+1:295m12327.627104mNRFaizabad, Uttar Pradesh
34AYAyodhya Junction (3)X  02:08+1:3702:10+1:372m12334.34098mNRAyodhya, Uttar Pradesh
35GGJGoshainGanj (3)  02:58+1:3103:00+1:322m--2366.06798mNRGoshainganj, Uttar Pradesh
36ABPAkbarpur (2)  03:20+1:3003:22+1:332m--2388.27692mNRAkbarpur, Uttar Pradesh
37MLPRMalipur (2)  03:37+1:4103:39+1:422m--2407.34792mNRMalipur, Uttar Pradesh
38SHGShahganj Junction (4)X  04:11+1:4004:15+1:394m--2432.35390mNRShahganj, Uttar Pradesh
39KSKheta Sarai (1)04:27+1:4204:29+1:422m12443.07288mNRKheta Sarai, Uttar Pradesh
40JNUJaunpur Junction (5)  04:48+1:4004:50+1:412m--2465.63283mNRJaunpur, Uttar Pradesh
41ZBDZafarabad Junction (4)  05:02+1:4505:04+1:462m--2472.13683mNRNational Highway 56, Uttar Pradesh
42KSFKhalispur (2)  05:43+1:2905:44+1:301m--2495.57083mNRPhulpur, Uttar Pradesh
43BTPBabatpur (2)X  05:52+1:3305:54+1:322m--2504.82084mNRSatomahua-Mangari Rd, Uttar Pradesh
44BSB•Varanasi Junction (9)•  06:50+56-82523.3-82mNRVaranasi 221002, Uttar Pradesh
Scroll to Top
Scroll to Bottom